Time,TemperatureF,DewpointF,PressureIn,WindDirection,WindDirectionDegrees,WindSpeedMPH,WindSpeedGustMPH,Humidity,HourlyPrecipIn,Conditions,Clouds,dailyrainin,SolarRadiationWatts/m^2,SoftwareType,DateUTC
2013-10-15 00:04:00,41.0,39.0,-100.00,SSW,199,0.0,3.0,91,0.00,,,0.00,0.000000,,2013-10-15 04:04:00,
2013-10-15 00:12:00,40.0,38.0,-100.00,East,90,0.0,4.0,91,0.00,,,0.00,0.000000,,2013-10-15 04:12:00,
2013-10-15 00:44:00,40.0,38.0,-100.00,East,90,0.0,4.0,91,0.00,,,0.00,0.000000,,2013-10-15 04:44:00,
2013-10-15 00:54:00,40.0,38.0,-100.00,East,90,0.0,4.0,91,0.00,,,0.00,0.000000,,2013-10-15 04:54:00,
2013-10-15 01:03:00,40.0,38.0,-100.00,East,90,0.0,4.0,91,0.00,,,0.00,0.000000,,2013-10-15 05:03:00,
2013-10-15 01:12:00,41.0,38.0,-100.00,SE,126,3.0,7.0,88,0.00,,,0.00,0.000000,,2013-10-15 05:12:00,
2013-10-15 01:42:00,41.0,38.0,-100.00,SE,126,3.0,7.0,88,0.00,,,0.00,0.000000,,2013-10-15 05:42:00,
2013-10-15 01:53:00,41.0,38.0,-100.00,SE,126,3.0,7.0,88,0.00,,,0.00,0.000000,,2013-10-15 05:53:00,
2013-10-15 02:02:00,41.0,38.0,-100.00,SE,126,3.0,7.0,88,0.00,,,0.00,0.000000,,2013-10-15 06:02:00,
2013-10-15 02:12:00,43.0,38.0,-100.00,ESE,118,4.0,8.0,82,0.00,,,0.00,0.000000,,2013-10-15 06:12:00,
2013-10-15 02:43:00,43.0,38.0,-100.00,ESE,118,4.0,8.0,82,0.00,,,0.00,0.000000,,2013-10-15 06:43:00,
2013-10-15 02:52:00,43.0,38.0,-100.00,ESE,118,4.0,8.0,82,0.00,,,0.00,0.000000,,2013-10-15 06:52:00,
2013-10-15 03:02:00,43.0,38.0,-100.00,ESE,118,4.0,8.0,82,0.00,,,0.00,0.000000,,2013-10-15 07:02:00,
2013-10-15 03:12:00,43.0,38.0,-100.00,ESE,113,2.0,7.0,81,0.00,,,0.00,0.000000,,2013-10-15 07:12:00,
2013-10-15 03:42:00,43.0,38.0,-100.00,ESE,113,2.0,7.0,81,0.00,,,0.00,0.000000,,2013-10-15 07:42:00,
2013-10-15 03:53:00,43.0,38.0,-100.00,ESE,113,2.0,7.0,81,0.00,,,0.00,0.000000,,2013-10-15 07:53:00,
2013-10-15 04:02:00,43.0,38.0,-100.00,ESE,113,2.0,7.0,81,0.00,,,0.00,0.000000,,2013-10-15 08:02:00,
2013-10-15 04:12:00,43.0,39.0,-100.00,ESE,105,5.0,8.0,86,0.00,,,0.00,0.000000,,2013-10-15 08:12:00,
2013-10-15 04:42:00,43.0,39.0,-100.00,ESE,105,5.0,8.0,86,0.00,,,0.00,0.000000,,2013-10-15 08:42:00,
2013-10-15 04:52:00,43.0,39.0,-100.00,ESE,105,5.0,8.0,86,0.00,,,0.00,0.000000,,2013-10-15 08:52:00,
2013-10-15 05:02:00,43.0,39.0,-100.00,ESE,105,5.0,8.0,86,0.00,,,0.00,0.000000,,2013-10-15 09:02:00,
2013-10-15 05:12:00,44.0,41.0,-100.00,ESE,108,4.0,10.0,88,0.00,,,0.00,0.000000,,2013-10-15 09:12:00,
2013-10-15 05:43:00,44.0,41.0,-100.00,ESE,108,4.0,10.0,88,0.00,,,0.00,0.000000,,2013-10-15 09:43:00,
2013-10-15 05:53:00,44.0,41.0,-100.00,ESE,108,4.0,10.0,88,0.00,,,0.00,0.000000,,2013-10-15 09:53:00,
2013-10-15 06:03:00,44.0,41.0,-100.00,ESE,108,4.0,10.0,88,0.00,,,0.00,0.000000,,2013-10-15 10:03:00,
2013-10-15 06:43:00,44.0,42.0,-100.00,East,90,2.0,6.0,91,0.00,,,0.00,0.000000,,2013-10-15 10:43:00,
2013-10-15 06:53:00,44.0,42.0,-100.00,East,90,2.0,6.0,91,0.00,,,0.00,0.000000,,2013-10-15 10:53:00,
2013-10-15 07:02:00,44.0,42.0,-100.00,East,90,2.0,6.0,91,0.00,,,0.00,0.000000,,2013-10-15 11:02:00,
2013-10-15 07:11:00,44.0,42.0,-100.00,East,90,2.0,6.0,91,0.00,,,0.00,0.000000,,2013-10-15 11:11:00,
2013-10-15 07:12:00,44.0,42.0,-100.00,East,82,2.0,5.0,92,0.00,,,0.00,0.000000,,2013-10-15 11:12:00,
2013-10-15 07:42:00,44.0,42.0,-100.00,East,82,2.0,5.0,92,0.00,,,0.00,0.000000,,2013-10-15 11:42:00,
2013-10-15 07:53:00,44.0,42.0,-100.00,East,82,2.0,5.0,92,0.00,,,0.00,0.000000,,2013-10-15 11:53:00,
2013-10-15 08:01:00,44.0,42.0,-100.00,East,82,2.0,5.0,92,0.00,,,0.00,0.000000,,2013-10-15 12:01:00,
2013-10-15 08:42:00,43.0,41.0,-100.00,East,97,2.0,6.0,94,0.00,,,0.00,0.000000,,2013-10-15 12:42:00,
2013-10-15 08:52:00,43.0,41.0,-100.00,East,97,2.0,6.0,94,0.00,,,0.00,0.000000,,2013-10-15 12:52:00,
2013-10-15 09:02:00,43.0,41.0,-100.00,East,97,2.0,6.0,94,0.00,,,0.00,0.000000,,2013-10-15 13:02:00,
2013-10-15 09:11:00,43.0,41.0,-100.00,East,97,2.0,6.0,94,0.00,,,0.00,0.000000,,2013-10-15 13:11:00,
2013-10-15 09:12:00,44.0,41.0,-100.00,ESE,113,5.0,11.0,88,0.00,,,0.00,13.000000,,2013-10-15 13:12:00,
2013-10-15 09:42:00,44.0,41.0,-100.00,ESE,113,5.0,11.0,88,0.00,,,0.00,13.000000,,2013-10-15 13:42:00,
2013-10-15 09:52:00,44.0,41.0,-100.00,ESE,113,5.0,11.0,88,0.00,,,0.00,13.000000,,2013-10-15 13:52:00,
2013-10-15 10:02:00,44.0,41.0,-100.00,ESE,113,5.0,11.0,88,0.00,,,0.00,13.000000,,2013-10-15 14:02:00,
2013-10-15 10:42:00,46.0,42.0,-100.00,ESE,114,5.0,9.0,87,0.00,,,0.00,42.000000,,2013-10-15 14:42:00,
2013-10-15 10:52:00,46.0,42.0,-100.00,ESE,114,5.0,9.0,87,0.00,,,0.00,42.000000,,2013-10-15 14:52:00,
2013-10-15 11:01:00,46.0,42.0,-100.00,ESE,114,5.0,9.0,87,0.00,,,0.00,42.000000,,2013-10-15 15:01:00,
2013-10-15 11:11:00,46.0,42.0,-100.00,ESE,114,5.0,9.0,87,0.00,,,0.00,42.000000,,2013-10-15 15:11:00,
2013-10-15 11:12:00,46.0,44.0,-100.00,ESE,103,5.0,8.0,92,0.01,,,0.01,39.000000,,2013-10-15 15:12:00,
2013-10-15 11:44:00,46.0,44.0,-100.00,ESE,103,5.0,8.0,92,0.01,,,0.01,39.000000,,2013-10-15 15:44:00,
2013-10-15 11:53:00,46.0,44.0,-100.00,ESE,103,5.0,8.0,92,0.01,,,0.01,39.000000,,2013-10-15 15:53:00,
2013-10-15 12:03:00,46.0,44.0,-100.00,ESE,103,5.0,8.0,92,0.01,,,0.01,39.000000,,2013-10-15 16:03:00,
2013-10-15 12:12:00,47.0,45.0,-100.00,ESE,115,4.0,10.0,94,0.01,,,0.02,47.000000,,2013-10-15 16:12:00,
2013-10-15 12:43:00,47.0,45.0,-100.00,ESE,115,4.0,10.0,94,0.01,,,0.02,47.000000,,2013-10-15 16:43:00,
2013-10-15 12:53:00,47.0,45.0,-100.00,ESE,115,4.0,10.0,94,0.01,,,0.02,47.000000,,2013-10-15 16:53:00,
2013-10-15 13:02:00,47.0,45.0,-100.00,ESE,115,4.0,10.0,94,0.01,,,0.02,47.000000,,2013-10-15 17:02:00,
2013-10-15 13:12:00,48.0,47.0,-100.00,ESE,120,4.0,10.0,96,0.01,,,0.03,56.000000,,2013-10-15 17:12:00,
2013-10-15 13:42:00,48.0,47.0,-100.00,ESE,120,4.0,10.0,96,0.01,,,0.03,56.000000,,2013-10-15 17:42:00,
2013-10-15 13:53:00,48.0,47.0,-100.00,ESE,120,4.0,10.0,96,0.01,,,0.03,56.000000,,2013-10-15 17:53:00,
2013-10-15 14:02:00,48.0,47.0,-100.00,ESE,120,4.0,10.0,96,0.01,,,0.03,56.000000,,2013-10-15 18:02:00,
2013-10-15 14:12:00,49.0,48.0,-100.00,ESE,119,6.0,12.0,96,0.06,,,0.09,64.000000,,2013-10-15 18:12:00,
2013-10-15 14:42:00,49.0,48.0,-100.00,ESE,119,6.0,12.0,96,0.06,,,0.09,64.000000,,2013-10-15 18:42:00,
2013-10-15 14:52:00,49.0,48.0,-100.00,ESE,119,6.0,12.0,96,0.06,,,0.09,64.000000,,2013-10-15 18:52:00,
2013-10-15 15:01:00,49.0,48.0,-100.00,ESE,119,6.0,12.0,96,0.06,,,0.09,64.000000,,2013-10-15 19:01:00,
2013-10-15 15:12:00,51.0,49.0,-100.00,SE,125,6.0,13.0,94,0.00,,,0.09,130.000000,,2013-10-15 19:12:00,
2013-10-15 15:42:00,51.0,49.0,-100.00,SE,125,6.0,13.0,94,0.00,,,0.09,130.000000,,2013-10-15 19:42:00,
2013-10-15 15:52:00,51.0,49.0,-100.00,SE,125,6.0,13.0,94,0.00,,,0.09,130.000000,,2013-10-15 19:52:00,
2013-10-15 16:03:00,51.0,49.0,-100.00,SE,125,6.0,13.0,94,0.00,,,0.09,130.000000,,2013-10-15 20:03:00,
2013-10-15 16:12:00,50.0,48.0,-100.00,ESE,119,6.0,14.0,94,0.01,,,0.10,63.000000,,2013-10-15 20:12:00,
2013-10-15 16:42:00,50.0,48.0,-100.00,ESE,119,6.0,14.0,94,0.01,,,0.10,63.000000,,2013-10-15 20:42:00,
2013-10-15 16:52:00,50.0,48.0,-100.00,ESE,119,6.0,14.0,94,0.01,,,0.10,63.000000,,2013-10-15 20:52:00,
2013-10-15 17:02:00,50.0,48.0,-100.00,ESE,119,6.0,14.0,94,0.01,,,0.10,63.000000,,2013-10-15 21:02:00,
2013-10-15 17:12:00,50.0,49.0,-100.00,ESE,117,6.0,11.0,96,0.00,,,0.10,39.000000,,2013-10-15 21:12:00,
2013-10-15 17:44:00,50.0,49.0,-100.00,ESE,117,6.0,11.0,96,0.00,,,0.10,39.000000,,2013-10-15 21:44:00,
2013-10-15 17:54:00,50.0,49.0,-100.00,ESE,117,6.0,11.0,96,0.00,,,0.10,39.000000,,2013-10-15 21:54:00,
2013-10-15 18:04:00,50.0,49.0,-100.00,ESE,117,6.0,11.0,96,0.00,,,0.10,39.000000,,2013-10-15 22:04:00,
2013-10-15 18:12:00,50.0,49.0,-100.00,SE,126,4.0,11.0,97,0.01,,,-99.99,11.000000,,2013-10-15 22:12:00,
2013-10-15 18:43:00,50.0,49.0,-100.00,SE,126,4.0,11.0,97,0.01,,,-99.99,11.000000,,2013-10-15 22:43:00,
2013-10-15 18:53:00,50.0,49.0,-100.00,SE,126,4.0,11.0,97,0.01,,,-99.99,11.000000,,2013-10-15 22:53:00,
2013-10-15 19:03:00,50.0,49.0,-100.00,SE,126,4.0,11.0,97,0.01,,,-99.99,11.000000,,2013-10-15 23:03:00,
2013-10-15 19:12:00,50.0,49.0,-100.00,ESE,119,5.0,10.0,97,0.01,,,0.12,2.000000,,2013-10-15 23:12:00,
2013-10-15 19:43:00,50.0,49.0,-100.00,ESE,119,5.0,10.0,97,0.01,,,0.12,2.000000,,2013-10-15 23:43:00,
2013-10-15 19:52:00,50.0,49.0,-100.00,ESE,119,5.0,10.0,97,0.01,,,0.12,2.000000,,2013-10-15 23:52:00,
2013-10-15 20:01:00,50.0,49.0,-100.00,ESE,119,5.0,10.0,97,0.01,,,0.12,2.000000,,2013-10-16 00:01:00,
2013-10-15 20:42:00,51.0,50.0,-100.00,ESE,121,4.0,9.0,98,0.01,,,0.13,0.000000,,2013-10-16 00:42:00,
2013-10-15 20:52:00,51.0,50.0,-100.00,ESE,121,4.0,9.0,98,0.01,,,0.13,0.000000,,2013-10-16 00:52:00,
2013-10-15 21:02:00,51.0,50.0,-100.00,ESE,121,4.0,9.0,98,0.01,,,0.13,0.000000,,2013-10-16 01:02:00,
2013-10-15 21:11:00,51.0,50.0,-100.00,ESE,121,4.0,9.0,98,0.01,,,0.13,0.000000,,2013-10-16 01:11:00,
2013-10-15 21:12:00,51.0,50.0,-100.00,ESE,119,3.0,7.0,98,0.00,,,0.13,0.000000,,2013-10-16 01:12:00,
2013-10-15 21:42:00,51.0,50.0,-100.00,ESE,119,3.0,7.0,98,0.00,,,0.13,0.000000,,2013-10-16 01:42:00,
2013-10-15 21:52:00,51.0,50.0,-100.00,ESE,119,3.0,7.0,98,0.00,,,0.13,0.000000,,2013-10-16 01:52:00,
2013-10-15 22:02:00,51.0,50.0,-100.00,ESE,119,3.0,7.0,98,0.00,,,0.13,0.000000,,2013-10-16 02:02:00,
2013-10-15 22:42:00,51.0,50.0,-100.00,NE,52,0.0,4.0,98,0.01,,,0.14,0.000000,,2013-10-16 02:42:00,
2013-10-15 22:52:00,51.0,50.0,-100.00,NE,52,0.0,4.0,98,0.01,,,0.14,0.000000,,2013-10-16 02:52:00,
2013-10-15 23:02:00,51.0,50.0,-100.00,NE,52,0.0,4.0,98,0.01,,,0.14,0.000000,,2013-10-16 03:02:00,
2013-10-15 23:11:00,51.0,50.0,-100.00,NE,52,0.0,4.0,98,0.01,,,0.14,0.000000,,2013-10-16 03:11:00,
2013-10-15 23:12:00,51.0,50.0,-100.00,NNE,25,1.0,2.0,98,0.00,,,0.14,0.000000,,2013-10-16 03:12:00,
2013-10-15 23:45:00,51.0,50.0,-100.00,NNE,25,1.0,2.0,98,0.00,,,0.14,0.000000,,2013-10-16 03:45:00,
2013-10-15 23:55:00,51.0,50.0,-100.00,NNE,25,1.0,2.0,98,0.00,,,0.14,0.000000,,2013-10-16 03:55:00,